createdAt,value
2022-09-10T00:02:08.090Z,14.56
2022-09-10T00:05:12.664Z,14.46
2022-09-10T00:08:17.631Z,14.38
2022-09-10T00:11:20.695Z,14.15
2022-09-10T00:14:24.620Z,14.04
2022-09-10T00:17:27.503Z,14.04
2022-09-10T00:20:29.986Z,13.97
2022-09-10T00:23:33.853Z,13.92
2022-09-10T00:26:39.601Z,13.79
2022-09-10T00:29:42.225Z,13.69
2022-09-10T00:32:44.699Z,13.76
2022-09-10T00:35:48.090Z,13.83
2022-09-10T00:38:53.295Z,13.86
2022-09-10T00:41:57.071Z,13.92
2022-09-10T00:45:03.192Z,13.92
2022-09-10T00:48:08.963Z,13.84
2022-09-10T00:51:11.558Z,13.72
2022-09-10T00:54:17.771Z,13.66
2022-09-10T00:57:23.121Z,13.53
2022-09-10T01:00:26.072Z,13.36
2022-09-10T01:03:30.264Z,13.31
2022-09-10T01:06:33.304Z,12.79
2022-09-10T01:09:39.051Z,12.64
2022-09-10T01:13:01.482Z,12.76
2022-09-10T01:16:11.634Z,12.93
2022-09-10T01:19:35.574Z,12.94
2022-09-10T01:22:54.326Z,12.92
2022-09-10T01:26:10.760Z,12.97
2022-09-10T01:29:21.403Z,13.02
2022-09-10T01:32:30.171Z,12.98
2022-09-10T01:35:39.244Z,12.87
2022-09-10T01:38:42.717Z,12.79
2022-09-10T01:41:45.806Z,12.74
2022-09-10T01:44:51.036Z,12.68
2022-09-10T01:48:09.274Z,12.61
2022-09-10T01:51:22.291Z,12.65
2022-09-10T01:54:37.147Z,12.65
2022-09-10T01:57:48.807Z,12.61
2022-09-10T02:01:04.338Z,12.60
2022-09-10T02:04:10.959Z,12.61
2022-09-10T02:07:15.848Z,12.54
2022-09-10T02:10:18.601Z,12.50
2022-09-10T02:13:21.448Z,12.48
2022-09-10T02:16:31.118Z,12.50
2022-09-10T02:19:33.622Z,12.48
2022-09-10T02:22:37.136Z,12.44
2022-09-10T02:25:39.857Z,12.45
2022-09-10T02:28:43.554Z,12.43
2022-09-10T02:31:47.707Z,12.37
2022-09-10T02:34:50.221Z,12.30
2022-09-10T02:37:53.399Z,12.25
2022-09-10T02:40:59.237Z,12.25
2022-09-10T02:44:02.211Z,12.21
2022-09-10T02:47:06.869Z,12.20
2022-09-10T02:50:11.663Z,12.09
2022-09-10T02:53:14.342Z,12.02
2022-09-10T02:56:17.691Z,11.83
2022-09-10T02:59:20.186Z,11.83
2022-09-10T03:02:24.288Z,11.77
2022-09-10T03:05:26.759Z,11.82
2022-09-10T03:08:29.277Z,11.88
2022-09-10T03:11:31.804Z,11.98
2022-09-10T03:14:34.318Z,11.98
2022-09-10T03:17:38.112Z,11.93
2022-09-10T03:20:41.721Z,11.96
2022-09-10T03:23:44.981Z,12.13
2022-09-10T03:26:47.457Z,12.22
2022-09-10T03:29:49.969Z,12.17
2022-09-10T03:32:54.638Z,12.22
2022-09-10T03:35:57.121Z,12.17
2022-09-10T03:38:59.750Z,12.28
2022-09-10T03:42:05.236Z,12.30
2022-09-10T03:45:08.795Z,12.33
2022-09-10T03:48:12.578Z,12.35
2022-09-10T03:51:16.069Z,12.42
2022-09-10T03:54:19.313Z,12.52
2022-09-10T03:57:22.089Z,12.55
2022-09-10T04:00:24.522Z,12.54
2022-09-10T04:03:28.329Z,12.60
2022-09-10T04:06:32.322Z,12.53
2022-09-10T04:09:34.816Z,12.54
2022-09-10T04:12:37.391Z,12.52
2022-09-10T04:15:41.167Z,12.62
2022-09-10T04:18:45.066Z,12.75
2022-09-10T04:21:47.628Z,12.64
2022-09-10T04:24:50.092Z,12.31
2022-09-10T04:27:52.692Z,12.16
2022-09-10T04:30:55.137Z,12.30
2022-09-10T04:34:01.992Z,12.37
2022-09-10T04:37:04.498Z,12.22
2022-09-10T04:40:09.328Z,12.17
2022-09-10T04:43:11.846Z,12.39
2022-09-10T04:46:14.308Z,12.50
2022-09-10T04:49:18.148Z,12.63
2022-09-10T04:52:22.781Z,12.69
2022-09-10T04:55:26.106Z,12.67
2022-09-10T04:58:28.645Z,12.60
2022-09-10T05:01:31.304Z,12.42
2022-09-10T05:04:35.077Z,12.15
2022-09-10T05:07:37.622Z,12.17
2022-09-10T05:10:41.334Z,12.33
2022-09-10T05:13:43.805Z,12.64
2022-09-10T05:16:46.281Z,12.92
2022-09-10T05:19:50.166Z,13.09
2022-09-10T05:22:52.689Z,13.25
2022-09-10T05:25:56.733Z,13.44
2022-09-10T05:29:00.161Z,13.60
2022-09-10T05:32:03.043Z,14.02
2022-09-10T05:35:08.720Z,14.49
2022-09-10T05:38:12.687Z,14.87
2022-09-10T05:41:15.171Z,15.54
2022-09-10T05:44:17.621Z,16.54
2022-09-10T05:47:20.075Z,17.50
2022-09-10T05:50:23.925Z,17.68
2022-09-10T05:53:26.397Z,17.38
2022-09-10T05:56:28.841Z,17.68
2022-09-10T05:59:31.285Z,18.49
2022-09-10T06:02:34.352Z,19.47
2022-09-10T06:05:38.244Z,19.69
2022-09-10T06:08:40.947Z,19.71
2022-09-10T06:11:43.481Z,20.08
2022-09-10T06:14:45.922Z,20.64
2022-09-10T06:17:48.436Z,21.18
2022-09-10T06:21:02.197Z,21.11
2022-09-10T06:24:04.974Z,20.62
2022-09-10T06:27:08.593Z,20.41
2022-09-10T06:30:11.912Z,19.89
2022-09-10T06:33:16.634Z,19.72
2022-09-10T06:36:20.412Z,19.66
2022-09-10T06:39:22.899Z,19.63
2022-09-10T06:42:25.340Z,19.87
2022-09-10T06:45:28.234Z,19.79
2022-09-10T06:48:40.054Z,19.97
2022-09-10T06:51:46.118Z,19.97
2022-09-10T06:54:48.684Z,20.36
2022-09-10T06:57:51.116Z,20.45
2022-09-10T07:00:53.699Z,20.41
2022-09-10T07:03:58.234Z,20.59
2022-09-10T07:07:02.971Z,20.81
2022-09-10T07:10:07.461Z,20.51
2022-09-10T07:13:09.944Z,20.60
2022-09-10T07:16:12.446Z,20.61
2022-09-10T07:19:15.243Z,20.98
2022-09-10T07:22:19.073Z,21.07
2022-09-10T07:25:21.964Z,21.16
2022-09-10T07:28:24.404Z,21.29
2022-09-10T07:31:29.769Z,21.60
2022-09-10T07:34:32.216Z,21.88
2022-09-10T07:37:36.098Z,22.11
2022-09-10T07:40:38.560Z,22.25
2022-09-10T07:43:41.693Z,22.14
2022-09-10T07:46:45.069Z,22.11
2022-09-10T07:49:47.553Z,22.29
2022-09-10T07:52:52.758Z,22.53
2022-09-10T07:55:59.729Z,22.15
2022-09-10T07:59:02.594Z,21.89
2022-09-10T08:02:06.452Z,21.89
2022-09-10T08:05:10.509Z,22.31
2022-09-10T08:08:14.292Z,22.66
2022-09-10T08:11:19.420Z,23.02
2022-09-10T08:14:21.862Z,23.51
2022-09-10T08:17:24.333Z,23.91
2022-09-10T08:20:27.088Z,24.22
2022-09-10T08:23:30.940Z,24.50
2022-09-10T08:26:33.719Z,24.39
2022-09-10T08:29:36.204Z,24.57
2022-09-10T08:32:39.063Z,25.08
2022-09-10T08:35:41.587Z,25.10
2022-09-10T08:38:46.453Z,25.31
2022-09-10T08:41:55.200Z,25.67
2022-09-10T08:45:04.979Z,25.48
2022-09-10T08:48:16.636Z,25.82
2022-09-10T08:51:27.508Z,25.87
2022-09-10T08:54:37.956Z,25.53
2022-09-10T08:57:47.351Z,25.68
2022-09-10T09:00:56.850Z,25.44
2022-09-10T09:04:03.717Z,25.51
2022-09-10T09:07:14.186Z,25.98
2022-09-10T09:10:28.824Z,25.77
2022-09-10T09:13:51.590Z,25.68
2022-09-10T09:17:07.738Z,25.65
2022-09-10T09:20:18.052Z,25.71
2022-09-10T09:23:26.649Z,25.64
2022-09-10T09:26:36.334Z,26.20
2022-09-10T09:29:44.477Z,25.81
2022-09-10T09:32:48.426Z,25.55
2022-09-10T09:35:54.482Z,26.08
2022-09-10T09:38:57.055Z,26.47
2022-09-10T09:42:09.270Z,26.43
2022-09-10T09:45:21.785Z,26.24
2022-09-10T09:48:24.914Z,26.17
2022-09-10T09:51:35.402Z,26.29
2022-09-10T09:55:12.489Z,26.55
2022-09-10T09:58:30.442Z,26.28
2022-09-10T10:01:34.275Z,26.39
2022-09-10T10:04:41.483Z,26.52
2022-09-10T10:07:49.234Z,26.58
2022-09-10T10:10:53.957Z,26.68
2022-09-10T10:14:13.308Z,27.14
2022-09-10T10:17:27.965Z,27.25
2022-09-10T10:20:41.330Z,26.87
2022-09-10T10:23:44.184Z,24.35
2022-09-10T10:26:48.943Z,24.73
2022-09-10T10:29:59.412Z,25.49
2022-09-10T10:33:04.261Z,26.33
2022-09-10T10:36:13.727Z,26.77
2022-09-10T10:39:24.371Z,25.48
2022-09-10T10:42:31.229Z,24.44
2022-09-10T10:45:49.148Z,25.72
2022-09-10T10:49:03.835Z,26.00
2022-09-10T10:52:15.317Z,25.36
2022-09-10T10:55:21.581Z,25.45
2022-09-10T10:58:54.098Z,25.98
2022-09-10T11:02:04.143Z,26.63
2022-09-10T11:05:20.574Z,26.38
2022-09-10T11:08:34.811Z,26.14
2022-09-10T11:11:44.370Z,26.32
2022-09-10T11:14:51.215Z,26.02
2022-09-10T11:17:59.506Z,25.10
2022-09-10T11:21:08.644Z,24.52
2022-09-10T11:24:17.530Z,23.85
2022-09-10T11:27:24.559Z,24.15
2022-09-10T11:30:27.167Z,25.18
2022-09-10T11:33:39.619Z,25.82
2022-09-10T11:36:47.894Z,26.34
2022-09-10T11:39:54.399Z,25.80
2022-09-10T11:43:02.182Z,26.02
2022-09-10T11:46:10.855Z,26.49
2022-09-10T11:49:21.766Z,26.53
2022-09-10T11:52:25.814Z,26.14
2022-09-10T11:55:42.807Z,25.15
2022-09-10T11:58:55.142Z,24.52
2022-09-10T12:02:30.329Z,24.03
2022-09-10T12:05:46.087Z,24.63
2022-09-10T12:09:02.368Z,25.41
2022-09-10T12:12:20.950Z,25.73
2022-09-10T12:15:25.841Z,25.81
2022-09-10T12:18:33.587Z,25.73
2022-09-10T12:21:42.353Z,24.64
2022-09-10T12:24:52.567Z,23.30
2022-09-10T12:27:58.962Z,23.10
2022-09-10T12:31:03.143Z,24.16
2022-09-10T12:34:19.540Z,24.58
2022-09-10T12:37:28.034Z,25.69
2022-09-10T12:40:49.443Z,26.46
2022-09-10T12:43:56.546Z,26.47
2022-09-10T12:47:27.886Z,25.76
2022-09-10T12:50:53.168Z,25.47
2022-09-10T12:54:11.636Z,25.62
2022-09-10T12:57:34.969Z,26.49
2022-09-10T13:00:43.440Z,26.93
2022-09-10T13:03:55.480Z,27.09
2022-09-10T13:07:01.497Z,27.06
2022-09-10T13:10:08.372Z,26.20
2022-09-10T13:13:32.910Z,25.19
2022-09-10T13:16:41.126Z,24.86
2022-09-10T13:19:52.087Z,24.68
2022-09-10T13:22:57.581Z,24.40
2022-09-10T13:26:45.748Z,23.99
2022-09-10T13:29:52.599Z,23.91
2022-09-10T13:32:58.484Z,24.99
2022-09-10T13:36:23.120Z,25.09
2022-09-10T13:39:44.199Z,25.86
2022-09-10T13:42:59.064Z,25.75
2022-09-10T13:46:06.414Z,24.96
2022-09-10T13:49:15.168Z,24.30
2022-09-10T13:52:21.482Z,24.14
2022-09-10T13:55:27.844Z,23.61
2022-09-10T13:58:37.367Z,23.04
2022-09-10T14:01:50.008Z,22.42
2022-09-10T14:04:52.445Z,21.33
2022-09-10T14:07:56.935Z,20.88
2022-09-10T14:11:04.244Z,20.80
2022-09-10T14:14:12.729Z,20.31
2022-09-10T14:17:19.002Z,19.82
2022-09-10T14:20:26.771Z,19.22
2022-09-10T14:23:30.096Z,18.81
2022-09-10T14:26:34.382Z,18.57
2022-09-10T14:29:38.282Z,18.59
2022-09-10T14:32:40.799Z,18.67
2022-09-10T14:35:45.457Z,18.68
2022-09-10T14:38:55.639Z,18.83
2022-09-10T14:42:23.795Z,19.15
2022-09-10T14:45:41.454Z,19.06
2022-09-10T14:49:04.351Z,18.96
2022-09-10T14:52:07.823Z,18.92
2022-09-10T14:55:11.246Z,18.98
2022-09-10T14:58:13.664Z,19.06
2022-09-10T15:01:17.601Z,19.23
2022-09-10T15:04:23.543Z,19.33
2022-09-10T15:07:27.464Z,19.22
2022-09-10T15:10:29.904Z,19.31
2022-09-10T15:13:33.414Z,19.44
2022-09-10T15:16:37.577Z,19.59
2022-09-10T15:19:40.060Z,19.71
2022-09-10T15:22:42.458Z,19.84
2022-09-10T15:25:50.062Z,20.08
2022-09-10T15:28:52.685Z,20.11
2022-09-10T15:31:59.455Z,19.98
2022-09-10T15:35:03.273Z,19.87
2022-09-10T15:38:06.031Z,19.82
2022-09-10T15:41:12.531Z,19.89
2022-09-10T15:44:15.261Z,20.12
2022-09-10T15:47:19.118Z,20.31
2022-09-10T15:50:21.523Z,20.44
2022-09-10T15:53:24.004Z,20.61
2022-09-10T15:56:27.051Z,20.65
2022-09-10T15:59:29.594Z,20.65
2022-09-10T16:02:33.670Z,20.70
2022-09-10T16:05:36.181Z,20.66
2022-09-10T16:08:38.758Z,20.54
2022-09-10T16:11:43.169Z,20.50
2022-09-10T16:14:46.604Z,20.62
2022-09-10T16:17:50.595Z,20.69
2022-09-10T16:20:53.019Z,20.77
2022-09-10T16:23:59.084Z,20.88
2022-09-10T16:27:01.631Z,20.83
2022-09-10T16:30:04.418Z,20.80
2022-09-10T16:33:08.160Z,20.78
2022-09-10T16:36:12.518Z,20.71
2022-09-10T16:39:17.047Z,20.68
2022-09-10T16:42:20.010Z,20.63
2022-09-10T16:45:22.522Z,20.64
2022-09-10T16:48:26.300Z,20.66
2022-09-10T16:51:29.283Z,20.58
2022-09-10T16:54:31.938Z,20.53
2022-09-10T16:57:34.589Z,20.61
2022-09-10T17:00:38.142Z,20.49
2022-09-10T17:03:43.167Z,20.29
2022-09-10T17:06:46.005Z,20.14
2022-09-10T17:09:48.395Z,19.99
2022-09-10T17:12:50.844Z,19.90
2022-09-10T17:15:54.015Z,19.77
2022-09-10T17:18:59.305Z,19.65
2022-09-10T17:22:01.888Z,19.51
2022-09-10T17:25:06.572Z,19.32
2022-09-10T17:28:10.298Z,18.99
2022-09-10T17:31:12.818Z,18.77
2022-09-10T17:34:17.573Z,18.80
2022-09-10T17:37:20.112Z,18.69
2022-09-10T17:40:23.927Z,18.64
2022-09-10T17:43:27.503Z,18.63
2022-09-10T17:46:31.413Z,18.55
2022-09-10T17:49:35.163Z,18.50
2022-09-10T17:52:37.665Z,18.51
2022-09-10T17:55:40.240Z,18.51
2022-09-10T17:58:43.159Z,18.48
2022-09-10T18:01:45.655Z,18.47
2022-09-10T18:04:51.058Z,18.37
2022-09-10T18:07:53.479Z,18.34
2022-09-10T18:11:01.780Z,18.24
2022-09-10T18:14:04.791Z,17.89
2022-09-10T18:17:07.298Z,17.71
2022-09-10T18:20:11.407Z,17.53
2022-09-10T18:23:13.975Z,17.44
2022-09-10T18:26:19.284Z,17.47
2022-09-10T18:29:24.199Z,17.58
2022-09-10T18:32:26.772Z,17.53
2022-09-10T18:35:30.488Z,17.44
2022-09-10T18:38:32.893Z,17.33
2022-09-10T18:41:36.556Z,17.39
2022-09-10T18:44:39.618Z,17.27
2022-09-10T18:47:45.204Z,17.27
2022-09-10T18:50:49.214Z,17.19
2022-09-10T18:53:53.735Z,17.20
2022-09-10T18:56:57.220Z,16.97
2022-09-10T18:59:59.736Z,16.85
2022-09-10T19:03:02.156Z,16.81
2022-09-10T19:06:08.136Z,16.89
2022-09-10T19:09:12.984Z,16.89
2022-09-10T19:12:19.096Z,16.89
2022-09-10T19:15:22.186Z,16.83
2022-09-10T19:18:24.647Z,16.79
2022-09-10T19:21:32.253Z,16.67
2022-09-10T19:27:58.226Z,16.64
2022-09-10T19:31:03.075Z,16.60
2022-09-10T19:34:07.491Z,16.67
2022-09-10T19:37:11.298Z,16.61
2022-09-10T19:40:13.754Z,16.55
2022-09-10T19:43:16.703Z,16.50
2022-09-10T19:46:20.826Z,16.44
2022-09-10T19:49:23.343Z,16.41
2022-09-10T19:52:27.144Z,16.48
2022-09-10T19:55:29.951Z,16.49
2022-09-10T19:58:32.528Z,16.44
2022-09-10T20:01:36.805Z,16.44
2022-09-10T20:04:39.311Z,16.36
2022-09-10T20:07:43.049Z,16.22
2022-09-10T20:10:51.812Z,16.20
2022-09-10T20:13:56.023Z,16.07
2022-09-10T20:16:58.468Z,15.92
2022-09-10T20:20:03.819Z,15.95
2022-09-10T20:23:07.649Z,15.91
2022-09-10T20:26:11.800Z,15.86
2022-09-10T20:29:16.225Z,15.65
2022-09-10T20:32:18.752Z,15.51
2022-09-10T20:35:21.187Z,15.39
2022-09-10T20:38:25.762Z,15.46
2022-09-10T20:41:30.146Z,15.43
2022-09-10T20:44:32.930Z,15.38
2022-09-10T20:47:42.848Z,15.34
2022-09-10T20:50:52.472Z,15.34
2022-09-10T20:53:56.279Z,15.36
2022-09-10T20:56:58.719Z,15.26
2022-09-10T21:00:01.151Z,15.34
2022-09-10T21:03:04.038Z,15.21
2022-09-10T21:06:08.274Z,15.09
2022-09-10T21:09:12.406Z,15.11
2022-09-10T21:12:16.013Z,15.09
2022-09-10T21:15:18.537Z,15.11
2022-09-10T21:18:20.987Z,15.22
2022-09-10T21:21:26.265Z,15.22
2022-09-10T21:24:30.068Z,15.15
2022-09-10T21:27:32.671Z,15.30
2022-09-10T21:30:35.121Z,15.35
2022-09-10T21:33:37.987Z,15.46
2022-09-10T21:36:41.943Z,15.37
2022-09-10T21:39:45.859Z,15.37
2022-09-10T21:42:48.320Z,15.35
2022-09-10T21:45:52.057Z,15.28
2022-09-10T21:48:55.715Z,15.22
2022-09-10T21:51:58.190Z,15.28
2022-09-10T21:55:02.252Z,15.13
2022-09-10T22:02:26.987Z,15.00
2022-09-10T22:05:29.441Z,14.99
2022-09-10T22:08:32.507Z,14.88
2022-09-10T22:11:38.722Z,14.95
2022-09-10T22:14:41.121Z,14.87
2022-09-10T22:17:43.905Z,14.89
2022-09-10T22:20:46.379Z,15.00
2022-09-10T22:23:50.910Z,15.05
2022-09-10T22:26:54.641Z,15.01
2022-09-10T22:29:57.381Z,14.92
2022-09-10T22:32:59.995Z,14.86
2022-09-10T22:36:10.468Z,14.87
2022-09-10T22:39:14.705Z,14.88
2022-09-10T22:42:21.128Z,14.99
2022-09-10T22:45:23.741Z,14.89
2022-09-10T22:48:27.534Z,14.82
2022-09-10T22:51:31.896Z,14.93
2022-09-10T22:54:34.697Z,14.85
2022-09-10T22:57:39.548Z,14.71
2022-09-10T23:00:41.945Z,14.61
2022-09-10T23:03:45.405Z,14.57
2022-09-10T23:06:47.887Z,14.55
2022-09-10T23:09:50.301Z,14.35
2022-09-10T23:12:56.467Z,14.44
2022-09-10T23:15:58.868Z,14.43
2022-09-10T23:19:03.858Z,14.43
2022-09-10T23:22:06.741Z,14.43
2022-09-10T23:25:10.068Z,14.45
2022-09-10T23:28:13.748Z,14.55
2022-09-10T23:31:18.299Z,14.52
2022-09-10T23:34:21.460Z,14.42
2022-09-10T23:37:25.482Z,14.40
2022-09-10T23:40:32.294Z,14.27
2022-09-10T23:43:39.156Z,14.06
2022-09-10T23:46:41.986Z,14.07
2022-09-10T23:49:44.587Z,14.04
2022-09-10T23:52:48.362Z,14.02
2022-09-10T23:55:50.759Z,14.06
2022-09-10T23:58:55.272Z,14.08
